Assinippi, Massachusetts
Current Conditions -  °F | °C
As of 8:52 AM on Wednesday 26 Nov 2014 (Local Time) from KPYM Reporting Station
Light Rain Light Rain  
Wind Chill: 40°   Ceiling: 7500
Heat Index: 44°   Visibility: 10mi
Dew Point: 34°   Wind: 8mph
Humidity: 68%   Direction: 20°NNE
Pressure: 30.2"   Gusts: NA
Location:  42.1315°N, 70.8467°W
Report Text: KPYM 261352Z AUTO 02007KT 10SM -RA SCT060 OVC075 07/01 A3020 RMK AO2 RAB25 SLP226 P0000 T00670011
Loading
Personal Weather Stations






























Interactive Weather Map New forecast layout! Learn more

10-Day Weather Forecast

Advertisements
Track Severe Weather on mobile